createdAt,value
2018-12-20T02:16:38.885Z,3.40
2018-12-20T02:19:18.419Z,3.90
2018-12-20T18:34:58.907Z,4.00
2018-12-20T18:37:38.849Z,7.10
2018-12-20T18:40:12.115Z,7.00
2018-12-20T18:42:47.592Z,7.10
2018-12-20T18:45:19.398Z,7.00
2018-12-20T18:47:54.977Z,7.00
2018-12-20T18:53:16.278Z,7.00
2018-12-20T19:06:07.758Z,7.00
2018-12-20T19:08:45.210Z,7.10
2018-12-20T19:11:19.112Z,7.00
2018-12-20T19:14:00.593Z,7.00
2018-12-20T19:16:33.107Z,7.00
2018-12-20T19:19:08.861Z,7.00
2018-12-20T19:21:45.179Z,7.00
2018-12-20T19:24:18.247Z,7.00
2018-12-20T19:26:54.205Z,7.00
2018-12-20T19:29:30.348Z,7.00
2018-12-20T19:32:06.454Z,7.00
2018-12-20T19:34:46.371Z,6.90
2018-12-20T19:37:21.943Z,6.90
2018-12-20T19:40:02.106Z,6.90
2018-12-20T19:42:38.277Z,6.90
2018-12-20T19:45:13.679Z,6.90
2018-12-20T19:47:54.081Z,6.90
2018-12-20T19:50:38.290Z,6.90
2018-12-20T19:53:24.344Z,6.90
2018-12-20T19:56:00.039Z,6.90
2018-12-20T19:58:36.148Z,6.90
2018-12-20T20:01:18.304Z,6.90
2018-12-20T20:03:54.368Z,6.90
2018-12-20T20:06:46.631Z,6.90
2018-12-20T20:09:25.425Z,6.90
2018-12-20T20:12:01.348Z,6.90
2018-12-20T20:14:38.400Z,6.90
2018-12-20T20:17:12.351Z,6.90
2018-12-20T20:19:48.088Z,6.90
2018-12-20T20:22:34.561Z,6.90
2018-12-20T20:25:16.304Z,6.90
2018-12-20T20:27:52.960Z,6.90
2018-12-20T20:30:25.015Z,6.90
2018-12-20T20:33:01.169Z,6.90
2018-12-20T20:35:44.760Z,6.90
2018-12-20T20:38:24.830Z,6.90
2018-12-20T20:40:56.654Z,7.00
2018-12-20T20:43:32.925Z,7.00
2018-12-20T20:46:08.948Z,7.00
2018-12-20T20:48:59.075Z,7.00
2018-12-20T20:51:38.541Z,7.00
2018-12-20T20:54:14.033Z,7.00
2018-12-20T20:56:54.175Z,7.00
2018-12-20T20:59:30.270Z,7.00
2018-12-20T21:02:10.448Z,7.00
2018-12-20T21:04:52.850Z,7.00
2018-12-20T21:07:28.729Z,7.00
2018-12-20T21:10:06.822Z,7.00
2018-12-20T21:12:50.430Z,7.00
2018-12-20T21:15:26.354Z,7.00
2018-12-20T21:18:14.423Z,7.00
2018-12-20T21:20:50.416Z,7.00
2018-12-20T21:23:36.284Z,7.00
2018-12-20T21:26:22.979Z,6.90
2018-12-20T21:34:31.325Z,7.00
2018-12-20T21:37:11.328Z,6.90
2018-12-20T21:39:50.309Z,6.90
2018-12-20T21:42:24.208Z,6.90
2018-12-20T21:44:59.776Z,7.00
2018-12-20T21:47:42.128Z,6.90
2018-12-20T21:50:22.087Z,6.90
2018-12-20T21:52:58.139Z,6.90
2018-12-20T21:55:40.294Z,7.00
2018-12-20T21:58:15.990Z,7.00
2018-12-20T22:00:56.209Z,7.00
2018-12-20T22:03:34.371Z,7.00
2018-12-20T22:06:11.477Z,7.00
2018-12-20T22:08:59.495Z,7.00
2018-12-20T22:11:37.127Z,7.00
2018-12-20T22:14:10.531Z,7.00
2018-12-20T22:16:44.452Z,7.00
2018-12-20T22:19:32.130Z,7.00
2018-12-20T22:22:16.488Z,7.00
2018-12-20T22:30:02.557Z,7.00
2018-12-20T22:32:46.631Z,7.00
2018-12-20T22:35:21.285Z,7.00
2018-12-20T22:37:57.400Z,7.00
2018-12-20T22:40:36.572Z,7.00
2018-12-20T22:43:10.451Z,7.00
2018-12-20T22:45:44.630Z,7.00
2018-12-20T22:48:25.011Z,7.10
2018-12-20T22:51:08.972Z,7.10
2018-12-20T22:53:56.709Z,7.10
2018-12-20T22:56:32.409Z,7.10
2018-12-20T22:59:09.467Z,7.10
2018-12-20T23:01:47.983Z,7.10
2018-12-20T23:04:24.811Z,7.20
2018-12-20T23:07:04.418Z,7.20
2018-12-20T23:09:40.556Z,7.20
2018-12-20T23:12:19.130Z,7.20
2018-12-20T23:14:52.853Z,7.20
2018-12-20T23:17:28.602Z,7.20
2018-12-20T23:20:05.032Z,7.20
2018-12-20T23:22:44.581Z,7.20
2018-12-20T23:25:29.125Z,7.20
2018-12-20T23:28:06.836Z,7.20
2018-12-20T23:30:51.218Z,7.20
2018-12-20T23:33:38.072Z,7.20
2018-12-20T23:36:17.923Z,7.20
2018-12-20T23:38:55.405Z,7.20
2018-12-20T23:41:29.240Z,7.20
2018-12-20T23:44:10.876Z,7.20
2018-12-20T23:46:42.453Z,7.20
2018-12-20T23:49:22.996Z,7.20
2018-12-20T23:51:59.096Z,7.30
2018-12-20T23:54:36.112Z,7.30
2018-12-20T23:57:13.260Z,7.30
2018-12-20T23:59:55.616Z,7.20
